createdAt,value
2016-12-16T00:00:08.617Z,16.78
2016-12-16T00:00:36.459Z,16.87
2016-12-16T00:01:04.388Z,16.78
2016-12-16T00:01:32.390Z,16.83
2016-12-16T00:02:00.216Z,16.74
2016-12-16T00:02:28.027Z,16.86
2016-12-16T00:02:55.898Z,16.75
2016-12-16T00:03:23.743Z,16.87
2016-12-16T00:03:51.561Z,16.81
2016-12-16T00:04:19.461Z,16.86
2016-12-16T00:04:47.268Z,16.86
2016-12-16T00:05:15.088Z,16.86
2016-12-16T00:05:42.925Z,16.71
2016-12-16T00:06:10.858Z,16.78
2016-12-16T00:06:38.933Z,16.74
2016-12-16T00:07:06.760Z,16.79
2016-12-16T00:07:34.581Z,16.76
2016-12-16T00:08:02.420Z,16.72
2016-12-16T00:08:30.278Z,16.76
2016-12-16T00:08:58.052Z,16.76
2016-12-16T00:09:25.877Z,16.75
2016-12-16T00:09:53.750Z,16.76
2016-12-16T00:10:21.589Z,16.75
2016-12-16T00:10:49.508Z,16.66
2016-12-16T00:11:17.397Z,16.72
2016-12-16T00:11:45.447Z,16.89
2016-12-16T00:12:13.430Z,16.79
2016-12-16T00:12:41.230Z,16.86
2016-12-16T00:13:09.095Z,16.78
2016-12-16T00:13:36.913Z,16.81
2016-12-16T00:14:04.814Z,16.75
2016-12-16T00:14:32.619Z,16.75
2016-12-16T00:15:00.433Z,16.68
2016-12-16T00:15:28.237Z,16.79
2016-12-16T00:15:56.043Z,16.76
2016-12-16T00:16:23.858Z,16.69
2016-12-16T00:16:52.002Z,16.74
2016-12-16T00:17:19.800Z,16.69
2016-12-16T00:17:47.655Z,16.71
2016-12-16T00:18:15.441Z,16.72
2016-12-16T00:18:43.295Z,16.72
2016-12-16T00:19:11.229Z,16.71
2016-12-16T00:19:38.992Z,16.75
2016-12-16T00:20:06.764Z,16.69
2016-12-16T00:20:34.648Z,16.69
2016-12-16T00:21:02.466Z,16.72
2016-12-16T00:21:30.296Z,16.74
2016-12-16T00:21:58.331Z,16.68
2016-12-16T00:22:26.140Z,16.66
2016-12-16T00:22:53.948Z,16.72
2016-12-16T00:23:21.775Z,16.71
2016-12-16T00:23:49.599Z,16.71
2016-12-16T00:24:17.407Z,16.65
2016-12-16T00:24:45.285Z,16.65
2016-12-16T00:25:13.078Z,16.58
2016-12-16T00:25:40.899Z,16.74
2016-12-16T00:26:08.925Z,16.66
2016-12-16T00:26:36.746Z,16.71
2016-12-16T00:27:04.782Z,16.69
2016-12-16T00:27:32.628Z,16.69
2016-12-16T00:28:00.467Z,16.75
2016-12-16T00:28:28.293Z,16.68
2016-12-16T00:28:56.190Z,16.68
2016-12-16T00:29:24.079Z,16.69
2016-12-16T00:29:51.907Z,16.65
2016-12-16T00:30:19.859Z,16.72
2016-12-16T00:30:47.672Z,16.72
2016-12-16T00:31:15.494Z,16.71
2016-12-16T00:31:43.518Z,16.74
2016-12-16T00:32:11.312Z,16.74
2016-12-16T00:32:39.190Z,16.72
2016-12-16T00:33:06.987Z,16.75
2016-12-16T00:33:34.836Z,16.71
2016-12-16T00:34:02.694Z,16.74
2016-12-16T00:34:30.527Z,16.76
2016-12-16T00:34:58.458Z,16.76
2016-12-16T00:35:26.402Z,16.72
2016-12-16T00:35:54.222Z,16.81
2016-12-16T00:36:22.135Z,16.76
2016-12-16T00:36:50.222Z,16.84
2016-12-16T00:37:18.204Z,16.89
2016-12-16T00:37:46.016Z,16.76
2016-12-16T00:38:13.888Z,16.93
2016-12-16T00:38:41.797Z,16.9
2016-12-16T00:39:09.610Z,16.93
2016-12-16T00:39:37.480Z,16.89
2016-12-16T00:40:05.352Z,16.89
2016-12-16T00:40:33.153Z,16.87
2016-12-16T00:41:01.071Z,16.94
2016-12-16T00:41:28.939Z,16.93
2016-12-16T00:41:56.984Z,16.87
2016-12-16T00:42:24.796Z,16.96
2016-12-16T00:42:52.630Z,16.96
2016-12-16T00:43:20.455Z,16.97
2016-12-16T00:43:48.307Z,17.02
2016-12-16T00:44:16.221Z,16.99
2016-12-16T00:44:44.154Z,16.94
2016-12-16T00:45:12.003Z,16.9
2016-12-16T00:45:39.830Z,16.93
2016-12-16T00:46:07.732Z,16.89
2016-12-16T00:46:35.675Z,16.87
2016-12-16T00:47:03.776Z,16.84
2016-12-16T00:47:31.587Z,16.89
2016-12-16T00:47:59.429Z,16.81
2016-12-16T00:48:27.233Z,16.76
2016-12-16T00:48:55.109Z,16.68
2016-12-16T00:49:22.995Z,16.84
2016-12-16T00:49:50.833Z,16.81
2016-12-16T00:50:18.687Z,16.83
2016-12-16T00:50:46.506Z,16.74
2016-12-16T00:51:14.302Z,16.83
2016-12-16T00:51:42.148Z,16.83
2016-12-16T00:52:10.212Z,16.83
2016-12-16T00:52:38.110Z,16.87
2016-12-16T00:53:05.977Z,16.93
2016-12-16T00:53:33.812Z,16.81
2016-12-16T00:54:01.596Z,16.93
2016-12-16T00:54:29.451Z,16.9
2016-12-16T00:54:57.319Z,16.9
2016-12-16T00:55:25.307Z,16.89
2016-12-16T00:55:53.140Z,16.86
2016-12-16T00:56:21.029Z,16.91
2016-12-16T00:56:49.110Z,16.76
2016-12-16T00:57:16.881Z,16.79
2016-12-16T00:57:44.782Z,16.89
2016-12-16T00:58:12.594Z,16.81
2016-12-16T00:58:40.424Z,16.94
2016-12-16T00:59:08.310Z,16.83
2016-12-16T00:59:36.156Z,16.87
2016-12-16T01:00:04.027Z,16.86
2016-12-16T01:00:31.880Z,16.9
2016-12-16T01:00:59.727Z,16.91
2016-12-16T01:01:27.523Z,16.83
2016-12-16T01:01:55.666Z,16.94
2016-12-16T01:02:23.492Z,16.81
2016-12-16T01:02:51.327Z,16.86
2016-12-16T01:03:19.148Z,16.87
2016-12-16T01:03:47.025Z,16.75
2016-12-16T01:04:14.893Z,16.78
2016-12-16T01:04:42.731Z,16.72
2016-12-16T01:05:10.644Z,16.74
2016-12-16T01:05:38.490Z,16.79
2016-12-16T01:06:06.297Z,16.84
2016-12-16T01:06:34.154Z,16.84
2016-12-16T01:07:02.219Z,16.86
2016-12-16T01:07:30.089Z,16.83
2016-12-16T01:07:57.884Z,16.72
2016-12-16T01:08:25.746Z,16.74
2016-12-16T01:08:53.556Z,16.74
2016-12-16T01:09:21.496Z,16.6
2016-12-16T01:09:49.315Z,16.78
2016-12-16T01:10:17.131Z,16.81
2016-12-16T01:10:44.950Z,16.76
2016-12-16T01:11:12.741Z,16.74
2016-12-16T01:11:40.566Z,16.69
2016-12-16T01:12:08.623Z,16.69
2016-12-16T01:12:36.468Z,16.66
2016-12-16T01:13:04.364Z,16.75
2016-12-16T01:13:32.213Z,16.68
2016-12-16T01:14:00.090Z,16.74
2016-12-16T01:14:28.142Z,16.72
2016-12-16T01:14:56.042Z,16.71
2016-12-16T01:15:23.895Z,16.71
2016-12-16T01:15:51.724Z,16.76
2016-12-16T01:16:19.665Z,16.81
2016-12-16T01:16:47.501Z,16.86
2016-12-16T01:17:15.583Z,16.69
2016-12-16T01:17:43.379Z,16.76
2016-12-16T01:18:11.205Z,16.72
2016-12-16T01:18:39.017Z,16.69
2016-12-16T01:19:06.858Z,16.74
2016-12-16T01:19:34.654Z,16.76
2016-12-16T01:20:02.517Z,16.78
2016-12-16T01:20:30.328Z,16.76
2016-12-16T01:20:58.159Z,16.84
2016-12-16T01:21:25.999Z,16.79
2016-12-16T01:21:53.858Z,16.78
2016-12-16T01:22:21.942Z,16.83
2016-12-16T01:22:49.756Z,16.78
2016-12-16T01:23:17.901Z,16.81
2016-12-16T01:23:45.841Z,16.83
2016-12-16T01:24:13.788Z,16.86
2016-12-16T01:24:41.857Z,16.71
2016-12-16T01:25:09.756Z,16.69
2016-12-16T01:25:37.556Z,16.68
2016-12-16T01:26:05.364Z,16.69
2016-12-16T01:26:33.272Z,16.74
2016-12-16T01:27:01.223Z,16.76
2016-12-16T01:27:29.303Z,16.83
2016-12-16T01:27:57.175Z,16.84
2016-12-16T01:28:25.031Z,16.81
2016-12-16T01:28:52.839Z,16.86
2016-12-16T01:29:20.739Z,16.93
2016-12-16T01:29:48.615Z,16.86
2016-12-16T01:30:16.479Z,16.9
2016-12-16T01:30:50.606Z,16.96
2016-12-16T01:31:18.484Z,16.79
2016-12-16T01:31:46.303Z,16.83
2016-12-16T01:32:14.465Z,16.94
2016-12-16T01:32:42.309Z,16.91
2016-12-16T01:33:10.166Z,16.87
2016-12-16T01:33:37.953Z,16.91
2016-12-16T01:34:05.765Z,16.91
2016-12-16T01:34:33.733Z,16.99
2016-12-16T01:35:01.571Z,16.94
2016-12-16T01:35:29.401Z,17.06
2016-12-16T01:35:57.296Z,17.02
2016-12-16T01:36:25.182Z,16.96
2016-12-16T01:36:53.066Z,16.96
2016-12-16T01:37:21.148Z,17.04
2016-12-16T01:37:48.991Z,16.96
2016-12-16T01:38:16.813Z,16.96
2016-12-16T01:38:44.773Z,16.99
2016-12-16T01:39:12.618Z,16.96
2016-12-16T01:39:40.621Z,16.97
2016-12-16T01:40:08.445Z,16.94
2016-12-16T01:40:36.241Z,16.97
2016-12-16T01:41:04.092Z,16.89
2016-12-16T01:41:31.978Z,16.93
2016-12-16T01:41:59.772Z,16.93
2016-12-16T01:42:27.798Z,16.9
2016-12-16T01:42:55.601Z,16.91
2016-12-16T01:43:23.418Z,17.04
2016-12-16T01:43:51.294Z,16.94
2016-12-16T01:44:19.123Z,16.96
2016-12-16T01:44:46.947Z,16.93
2016-12-16T01:45:14.823Z,16.83
2016-12-16T01:45:42.678Z,16.9
2016-12-16T01:46:10.472Z,16.93
2016-12-16T01:46:38.322Z,17.02
2016-12-16T01:47:06.182Z,17.04
2016-12-16T01:47:34.212Z,17.04
2016-12-16T01:48:02.069Z,17.05
2016-12-16T01:48:29.928Z,17.08
2016-12-16T01:48:57.775Z,16.96
2016-12-16T01:49:25.617Z,16.97
2016-12-16T01:49:53.469Z,17.08
2016-12-16T01:50:21.270Z,17.01
2016-12-16T01:50:49.090Z,16.94
2016-12-16T01:51:16.900Z,16.99
2016-12-16T01:51:44.762Z,16.94
2016-12-16T01:52:12.954Z,16.9
2016-12-16T01:52:40.803Z,16.94
2016-12-16T01:53:08.649Z,16.93
2016-12-16T01:53:36.474Z,16.94
2016-12-16T01:54:04.307Z,16.96
2016-12-16T01:54:32.150Z,16.86
2016-12-16T01:55:00.007Z,16.84
2016-12-16T01:55:27.912Z,16.89
2016-12-16T01:55:55.804Z,16.83
2016-12-16T01:56:23.606Z,16.86
2016-12-16T01:56:51.450Z,16.87
2016-12-16T01:57:19.675Z,16.71
2016-12-16T01:57:47.534Z,16.79
2016-12-16T01:58:15.476Z,16.78
2016-12-16T01:58:43.274Z,16.86
2016-12-16T01:59:11.140Z,16.76
2016-12-16T01:59:38.958Z,16.89
2016-12-16T02:00:06.805Z,16.71
2016-12-16T02:00:34.644Z,16.81
2016-12-16T02:01:02.460Z,16.81
2016-12-16T02:01:30.290Z,16.72
2016-12-16T02:01:58.248Z,16.76
2016-12-16T02:02:26.387Z,16.78
2016-12-16T02:02:54.377Z,16.74
2016-12-16T02:03:22.305Z,16.89
2016-12-16T02:03:50.219Z,16.83
2016-12-16T02:04:18.085Z,16.9
2016-12-16T02:04:45.930Z,16.86
2016-12-16T02:05:13.850Z,16.84
2016-12-16T02:05:41.721Z,16.86
2016-12-16T02:06:09.543Z,16.86
2016-12-16T02:06:37.352Z,16.89
2016-12-16T02:07:05.143Z,16.81
2016-12-16T02:07:33.205Z,16.89
2016-12-16T02:08:01.030Z,16.93
2016-12-16T02:08:28.850Z,16.87
2016-12-16T02:08:56.682Z,16.89
2016-12-16T02:09:24.564Z,16.83
2016-12-16T02:09:52.408Z,16.79
2016-12-16T02:10:20.257Z,16.79
2016-12-16T02:10:48.082Z,16.72
2016-12-16T02:11:16.011Z,16.64
2016-12-16T02:11:43.975Z,16.74
2016-12-16T02:12:11.780Z,16.66
2016-12-16T02:12:39.822Z,16.76
2016-12-16T02:13:07.651Z,16.71
2016-12-16T02:13:35.560Z,16.71
2016-12-16T02:14:03.378Z,16.72
2016-12-16T02:14:31.240Z,16.74
2016-12-16T02:14:59.099Z,16.68
2016-12-16T02:15:26.893Z,16.68
2016-12-16T02:15:54.713Z,16.74
2016-12-16T02:16:22.545Z,16.71
2016-12-16T02:16:50.356Z,16.71
2016-12-16T02:17:18.184Z,16.79
2016-12-16T02:17:46.396Z,16.68
2016-12-16T02:18:14.214Z,16.86
2016-12-16T02:18:42.071Z,16.76
2016-12-16T02:19:09.919Z,16.81
2016-12-16T02:19:37.761Z,16.76
2016-12-16T02:20:05.770Z,16.79
2016-12-16T02:20:33.624Z,16.74
2016-12-16T02:21:01.477Z,16.74
2016-12-16T02:21:29.328Z,16.58
2016-12-16T02:21:57.155Z,16.61
2016-12-16T02:22:25.177Z,16.64
2016-12-16T02:22:53.051Z,16.49
2016-12-16T02:23:20.893Z,16.43
2016-12-16T02:23:48.736Z,16.49
2016-12-16T02:24:16.610Z,16.46
2016-12-16T02:24:44.542Z,16.54
2016-12-16T02:25:12.368Z,16.47
2016-12-16T02:25:40.206Z,16.61
2016-12-16T02:26:08.060Z,16.51
2016-12-16T02:26:35.899Z,16.47
2016-12-16T02:27:03.711Z,16.51
2016-12-16T02:27:31.738Z,16.42
2016-12-16T02:27:59.568Z,16.43
2016-12-16T02:28:27.424Z,16.49
2016-12-16T02:28:55.211Z,16.46
2016-12-16T02:29:23.119Z,16.49
2016-12-16T02:29:50.944Z,16.46
2016-12-16T02:30:18.754Z,16.41
2016-12-16T02:30:46.610Z,16.47
2016-12-16T02:31:14.488Z,16.47
2016-12-16T02:31:42.315Z,16.46
2016-12-16T02:32:10.081Z,16.49
2016-12-16T02:32:38.191Z,16.43
2016-12-16T02:33:06.025Z,16.47
2016-12-16T02:33:33.857Z,16.54
2016-12-16T02:34:01.736Z,16.5
2016-12-16T02:34:29.586Z,16.64
2016-12-16T02:34:57.469Z,16.64
2016-12-16T02:35:25.352Z,16.53
2016-12-16T02:35:53.172Z,16.58
2016-12-16T02:36:20.993Z,16.56
2016-12-16T02:36:48.792Z,16.61
2016-12-16T02:37:16.664Z,16.61
2016-12-16T02:37:44.717Z,16.58
2016-12-16T02:38:12.590Z,16.69
2016-12-16T02:38:40.489Z,16.71
2016-12-16T02:39:08.306Z,16.71
2016-12-16T02:39:36.143Z,16.72
2016-12-16T02:40:04.021Z,16.75
2016-12-16T02:40:31.798Z,16.72
2016-12-16T02:40:59.607Z,16.69
2016-12-16T02:41:27.475Z,16.72
2016-12-16T02:41:55.322Z,16.68
2016-12-16T02:42:23.173Z,16.74
2016-12-16T02:42:51.233Z,16.75
2016-12-16T02:43:19.068Z,16.68
2016-12-16T02:43:46.929Z,16.78
2016-12-16T02:44:14.754Z,16.83
2016-12-16T02:44:42.661Z,16.86
2016-12-16T02:45:10.513Z,16.83
2016-12-16T02:45:38.384Z,16.81
2016-12-16T02:46:06.202Z,16.75
2016-12-16T02:46:34.041Z,16.79
2016-12-16T02:47:01.963Z,16.68
2016-12-16T02:47:30.023Z,16.66
2016-12-16T02:47:57.877Z,16.64
2016-12-16T02:48:25.693Z,16.66
2016-12-16T02:48:53.590Z,16.65
2016-12-16T02:49:21.451Z,16.66
2016-12-16T02:49:49.283Z,16.66
2016-12-16T02:50:17.167Z,16.68
2016-12-16T02:50:45.009Z,16.69
2016-12-16T02:51:12.904Z,16.56
2016-12-16T02:51:40.724Z,16.64
2016-12-16T02:52:08.594Z,16.61
2016-12-16T02:52:36.629Z,16.71
2016-12-16T02:53:04.482Z,16.72
2016-12-16T02:53:32.278Z,16.68
2016-12-16T02:54:00.091Z,16.69
2016-12-16T02:54:27.949Z,16.68
2016-12-16T02:54:55.758Z,16.75
2016-12-16T02:55:23.597Z,16.81
2016-12-16T02:55:51.423Z,16.81
2016-12-16T02:56:19.243Z,16.79
2016-12-16T02:56:47.069Z,16.81
2016-12-16T02:57:14.902Z,16.89
2016-12-16T02:57:43.018Z,16.69
2016-12-16T02:58:10.796Z,16.68
2016-12-16T02:58:38.612Z,16.69
2016-12-16T02:59:06.423Z,16.71
2016-12-16T02:59:34.264Z,16.78
2016-12-16T03:00:02.161Z,16.64
2016-12-16T03:00:30.226Z,16.65
2016-12-16T03:00:58.129Z,16.57
2016-12-16T03:01:25.965Z,16.68
2016-12-16T03:01:53.800Z,16.64
2016-12-16T03:02:21.627Z,16.71
2016-12-16T03:02:49.586Z,16.74
2016-12-16T03:03:17.370Z,16.76
2016-12-16T03:03:45.206Z,16.71
2016-12-16T03:04:13.121Z,16.76
2016-12-16T03:04:40.961Z,16.75
2016-12-16T03:05:08.774Z,16.75
2016-12-16T03:05:36.612Z,16.81
2016-12-16T03:06:04.575Z,16.79
2016-12-16T03:06:32.434Z,16.83
2016-12-16T03:07:00.259Z,16.74
2016-12-16T03:07:28.061Z,16.84
2016-12-16T03:07:56.097Z,16.84
2016-12-16T03:08:23.940Z,16.76
2016-12-16T03:08:51.755Z,16.71
2016-12-16T03:09:19.599Z,16.71
2016-12-16T03:09:47.483Z,16.74
2016-12-16T03:10:15.333Z,16.72
2016-12-16T03:10:43.123Z,16.78
2016-12-16T03:11:11.008Z,16.66
2016-12-16T03:11:38.894Z,16.64
2016-12-16T03:12:06.700Z,16.65
2016-12-16T03:12:34.538Z,16.65
2016-12-16T03:13:02.552Z,16.65
2016-12-16T03:13:30.377Z,16.56
2016-12-16T03:13:58.281Z,16.6
2016-12-16T03:14:26.119Z,16.72
2016-12-16T03:14:53.994Z,16.72
2016-12-16T03:15:21.805Z,16.68
2016-12-16T03:15:49.609Z,16.69
2016-12-16T03:16:17.429Z,16.66
2016-12-16T03:16:45.257Z,16.71
2016-12-16T03:17:13.196Z,16.66
2016-12-16T03:17:41.259Z,16.72
2016-12-16T03:18:09.139Z,16.66
2016-12-16T03:18:36.990Z,16.74
2016-12-16T03:19:04.839Z,16.75
2016-12-16T03:19:32.699Z,16.78
2016-12-16T03:20:00.546Z,16.71
2016-12-16T03:20:28.411Z,16.76
2016-12-16T03:20:56.224Z,16.81
2016-12-16T03:21:24.045Z,16.84
2016-12-16T03:21:51.927Z,16.86
2016-12-16T03:22:19.784Z,16.91
2016-12-16T03:22:47.882Z,16.86
2016-12-16T03:23:15.715Z,16.91
2016-12-16T03:23:43.546Z,16.96
2016-12-16T03:24:11.311Z,16.97
2016-12-16T03:24:39.163Z,16.89
2016-12-16T03:25:06.992Z,16.84
2016-12-16T03:25:34.834Z,16.9
2016-12-16T03:26:02.695Z,16.89
2016-12-16T03:26:30.639Z,16.76
2016-12-16T03:26:58.496Z,16.9
2016-12-16T03:27:26.322Z,16.86
2016-12-16T03:27:54.372Z,16.87
2016-12-16T03:28:22.218Z,16.78
2016-12-16T03:28:50.053Z,16.78
2016-12-16T03:29:17.907Z,16.79
2016-12-16T03:29:45.753Z,16.79
2016-12-16T03:30:13.571Z,16.79
2016-12-16T03:30:41.385Z,16.78
2016-12-16T03:31:09.182Z,16.84
2016-12-16T03:31:37.055Z,16.79
2016-12-16T03:32:04.994Z,16.87
2016-12-16T03:32:32.812Z,16.81
2016-12-16T03:33:01.025Z,16.87
2016-12-16T03:33:28.839Z,16.84
2016-12-16T03:33:56.663Z,16.84
2016-12-16T03:34:24.577Z,16.84
2016-12-16T03:34:52.414Z,16.86
2016-12-16T03:35:20.269Z,16.91
2016-12-16T03:35:48.173Z,16.84
2016-12-16T03:36:15.967Z,16.86
2016-12-16T03:36:43.901Z,16.97
2016-12-16T03:37:11.699Z,16.81
2016-12-16T03:37:39.503Z,16.79
2016-12-16T03:38:07.579Z,16.78
2016-12-16T03:38:35.391Z,16.83
2016-12-16T03:39:03.310Z,16.84
2016-12-16T03:39:31.160Z,16.83
2016-12-16T03:39:59.072Z,16.89
2016-12-16T03:40:26.938Z,16.84
2016-12-16T03:40:54.785Z,16.86
2016-12-16T03:41:22.598Z,16.84
2016-12-16T03:41:50.442Z,16.87
2016-12-16T03:42:18.330Z,16.81
2016-12-16T03:42:46.371Z,16.94
2016-12-16T03:43:14.239Z,16.91
2016-12-16T03:43:42.121Z,16.94
2016-12-16T03:44:09.946Z,16.86
2016-12-16T03:44:37.778Z,16.89
2016-12-16T03:45:05.599Z,16.93
2016-12-16T03:45:33.537Z,17.01
2016-12-16T03:46:01.401Z,16.99
2016-12-16T03:46:29.226Z,16.97
2016-12-16T03:46:57.092Z,16.96
2016-12-16T03:47:24.922Z,16.91
2016-12-16T03:47:53.038Z,16.99
2016-12-16T03:48:20.928Z,16.94
2016-12-16T03:48:48.760Z,16.91
2016-12-16T03:49:16.575Z,16.91
2016-12-16T03:49:44.431Z,16.96
2016-12-16T03:50:12.315Z,16.91
2016-12-16T03:50:40.177Z,16.96
2016-12-16T03:51:08.027Z,17.02
2016-12-16T03:51:35.842Z,17.06
2016-12-16T03:52:03.679Z,16.97
2016-12-16T03:52:31.493Z,16.99
2016-12-16T03:52:59.550Z,16.97
2016-12-16T03:53:27.408Z,17.01
2016-12-16T03:53:55.354Z,16.96
2016-12-16T03:54:23.234Z,16.97
2016-12-16T03:54:51.146Z,16.93
2016-12-16T03:55:19.005Z,16.99
2016-12-16T03:55:46.813Z,16.99
2016-12-16T03:56:14.672Z,17.01
2016-12-16T03:56:42.511Z,17.06
2016-12-16T03:57:10.379Z,17.08
2016-12-16T03:57:38.189Z,17.14
2016-12-16T03:58:06.253Z,17.05
2016-12-16T03:58:34.133Z,17.11
2016-12-16T03:59:01.983Z,17.12
2016-12-16T03:59:29.837Z,17.08
2016-12-16T03:59:57.662Z,17.12
2016-12-16T04:00:25.482Z,17.09
2016-12-16T04:00:53.296Z,17.05
2016-12-16T04:01:21.177Z,17.14
2016-12-16T04:01:49.039Z,16.99
2016-12-16T04:02:16.859Z,17.12
2016-12-16T04:02:44.672Z,16.94
2016-12-16T04:03:12.775Z,17.06
2016-12-16T04:03:40.609Z,17.09
2016-12-16T04:04:08.429Z,17.02
2016-12-16T04:04:36.344Z,17.02
2016-12-16T04:05:04.195Z,17.09
2016-12-16T04:05:31.996Z,17.16
2016-12-16T04:05:59.824Z,17.12
2016-12-16T04:06:27.701Z,17.12
2016-12-16T04:06:55.557Z,17.16
2016-12-16T04:07:23.469Z,17.08
2016-12-16T04:07:51.507Z,17.11
2016-12-16T04:08:19.339Z,17.11
2016-12-16T04:08:47.172Z,17.11
2016-12-16T04:09:15.017Z,17.12
2016-12-16T04:09:42.876Z,17.2
2016-12-16T04:10:10.765Z,17.15
2016-12-16T04:10:38.614Z,17.2
2016-12-16T04:11:06.467Z,17.22
2016-12-16T04:11:34.295Z,17.09
2016-12-16T04:12:02.158Z,17.06
2016-12-16T04:12:30.025Z,17.11
2016-12-16T04:12:58.053Z,17.11
2016-12-16T04:13:25.961Z,17.15
2016-12-16T04:13:53.885Z,17.02
2016-12-16T04:14:21.848Z,17.09
2016-12-16T04:14:49.719Z,16.94
2016-12-16T04:15:17.536Z,16.89
2016-12-16T04:15:45.341Z,16.89
2016-12-16T04:16:13.203Z,16.9
2016-12-16T04:16:41.031Z,16.84
2016-12-16T04:17:08.873Z,16.84
2016-12-16T04:17:36.735Z,16.81
2016-12-16T04:18:04.826Z,16.76
2016-12-16T04:18:32.615Z,16.86
2016-12-16T04:19:00.479Z,16.84
2016-12-16T04:19:28.338Z,16.81
2016-12-16T04:19:56.199Z,16.81
2016-12-16T04:20:24.158Z,16.89
2016-12-16T04:20:52.026Z,16.91
2016-12-16T04:21:19.851Z,16.86
2016-12-16T04:21:47.679Z,16.94
2016-12-16T04:22:15.509Z,16.91
2016-12-16T04:22:43.449Z,16.99
2016-12-16T04:23:11.549Z,17.02
2016-12-16T04:23:39.412Z,17.09
2016-12-16T04:24:07.323Z,17.04
2016-12-16T04:24:35.121Z,16.99
2016-12-16T04:25:03.004Z,17.02
2016-12-16T04:25:30.865Z,17.04
2016-12-16T04:25:58.704Z,17.06
2016-12-16T04:26:26.515Z,17.11
2016-12-16T04:26:54.343Z,16.97
2016-12-16T04:27:22.148Z,17.12
2016-12-16T04:27:49.971Z,17.15
2016-12-16T04:28:18.063Z,17.12
2016-12-16T04:28:46.005Z,17.05
2016-12-16T04:29:13.826Z,17.05
2016-12-16T04:29:41.650Z,17.08
2016-12-16T04:30:09.545Z,16.99
2016-12-16T04:30:37.403Z,16.93
2016-12-16T04:31:05.250Z,16.97
2016-12-16T04:31:33.050Z,16.97
2016-12-16T04:32:00.885Z,16.91
2016-12-16T04:32:28.710Z,16.86
2016-12-16T04:32:56.773Z,16.97
2016-12-16T04:33:24.607Z,16.81
2016-12-16T04:33:52.395Z,16.91
2016-12-16T04:34:20.205Z,16.94
2016-12-16T04:34:48.022Z,16.99
2016-12-16T04:35:15.838Z,16.94
2016-12-16T04:35:43.675Z,17.01
2016-12-16T04:36:11.523Z,16.94
2016-12-16T04:36:39.373Z,16.93
2016-12-16T04:37:07.174Z,16.94
2016-12-16T04:37:34.980Z,16.96
2016-12-16T04:38:03.054Z,17.02
2016-12-16T04:38:30.918Z,16.96
2016-12-16T04:38:58.757Z,16.94
2016-12-16T04:39:26.594Z,16.93
2016-12-16T04:39:54.415Z,16.93
2016-12-16T04:40:22.296Z,16.9
2016-12-16T04:40:50.109Z,16.94
2016-12-16T04:41:17.896Z,16.84
2016-12-16T04:41:45.713Z,16.81
2016-12-16T04:42:13.631Z,16.81
2016-12-16T04:42:41.463Z,16.83
2016-12-16T04:43:09.469Z,16.83
2016-12-16T04:43:37.316Z,16.81
2016-12-16T04:44:05.138Z,16.89
2016-12-16T04:44:32.967Z,16.79
2016-12-16T04:45:00.776Z,16.86
2016-12-16T04:45:28.539Z,16.87
2016-12-16T04:45:56.416Z,16.86
2016-12-16T04:46:24.316Z,16.84
2016-12-16T04:46:52.127Z,16.9
2016-12-16T04:47:19.950Z,16.86
2016-12-16T04:47:47.743Z,16.84
2016-12-16T04:48:15.837Z,16.76
2016-12-16T04:48:43.662Z,16.74
2016-12-16T04:49:11.471Z,16.83
2016-12-16T04:49:39.312Z,16.89
2016-12-16T04:50:07.115Z,16.83
2016-12-16T04:50:35.041Z,16.71
2016-12-16T04:51:02.871Z,16.75
2016-12-16T04:51:30.736Z,16.65
2016-12-16T04:51:58.641Z,16.64
2016-12-16T04:52:26.525Z,16.72
2016-12-16T04:52:54.335Z,16.65
2016-12-16T04:53:22.360Z,16.71
2016-12-16T04:53:50.166Z,16.72
2016-12-16T04:54:18.074Z,16.78
2016-12-16T04:54:45.901Z,16.68
2016-12-16T04:55:13.762Z,16.71
2016-12-16T04:55:41.615Z,16.66
2016-12-16T04:56:09.410Z,16.72
2016-12-16T04:56:37.281Z,16.71
2016-12-16T04:57:05.104Z,16.76
2016-12-16T04:57:32.941Z,16.69
2016-12-16T04:58:01.044Z,16.78
2016-12-16T04:58:28.911Z,16.71
2016-12-16T04:58:56.800Z,16.78
2016-12-16T04:59:24.616Z,16.78
2016-12-16T04:59:52.398Z,16.66
2016-12-16T05:00:20.235Z,16.72
2016-12-16T05:00:48.096Z,16.74
2016-12-16T05:01:15.922Z,16.74
2016-12-16T05:01:43.740Z,16.76
2016-12-16T05:02:11.582Z,16.69
2016-12-16T05:02:39.511Z,16.72
2016-12-16T05:03:07.511Z,16.81
2016-12-16T05:03:35.375Z,16.78
2016-12-16T05:04:03.207Z,16.75
2016-12-16T05:04:31.069Z,16.84
2016-12-16T05:04:58.871Z,16.86
2016-12-16T05:05:26.682Z,16.75
2016-12-16T05:05:54.514Z,16.86
2016-12-16T05:06:22.337Z,16.79
2016-12-16T05:06:50.197Z,16.76
2016-12-16T05:07:18.069Z,16.76
2016-12-16T05:07:45.932Z,16.71
2016-12-16T05:08:14.018Z,16.74
2016-12-16T05:08:41.819Z,16.74
2016-12-16T05:09:09.628Z,16.87
2016-12-16T05:09:37.426Z,16.79
2016-12-16T05:10:05.256Z,16.79
2016-12-16T05:10:33.064Z,16.81
2016-12-16T05:11:00.911Z,16.81
2016-12-16T05:11:28.756Z,16.79
2016-12-16T05:11:56.579Z,16.83
2016-12-16T05:12:24.436Z,16.9
2016-12-16T05:12:52.347Z,16.81
2016-12-16T05:13:20.375Z,16.91
2016-12-16T05:13:48.178Z,16.91
2016-12-16T05:14:16.032Z,16.84
2016-12-16T05:14:43.860Z,16.84
2016-12-16T05:15:11.722Z,16.89
2016-12-16T05:15:39.557Z,16.69
2016-12-16T05:16:07.344Z,16.71
2016-12-16T05:16:35.164Z,16.76
2016-12-16T05:17:02.993Z,16.69
2016-12-16T05:17:30.827Z,16.6
2016-12-16T05:17:58.676Z,16.66
2016-12-16T05:18:26.712Z,16.56
2016-12-16T05:18:54.623Z,16.53
2016-12-16T05:19:22.481Z,16.47
2016-12-16T05:19:50.304Z,16.53
2016-12-16T05:20:18.153Z,16.47
2016-12-16T05:20:45.949Z,16.5
2016-12-16T05:21:13.767Z,16.5
2016-12-16T05:21:41.584Z,16.5
2016-12-16T05:22:09.383Z,16.49
2016-12-16T05:22:37.233Z,16.5
2016-12-16T05:23:05.078Z,16.47
2016-12-16T05:23:33.132Z,16.54
2016-12-16T05:24:00.933Z,16.56
2016-12-16T05:24:28.827Z,16.57
2016-12-16T05:24:56.665Z,16.5
2016-12-16T05:25:24.609Z,16.47
2016-12-16T05:25:52.464Z,16.58
2016-12-16T05:26:20.374Z,16.64
2016-12-16T05:26:48.281Z,16.53
2016-12-16T05:27:16.090Z,16.54
2016-12-16T05:27:43.906Z,16.64
2016-12-16T05:28:11.731Z,16.61
2016-12-16T05:28:39.864Z,16.64
2016-12-16T05:29:07.691Z,16.57
2016-12-16T05:29:35.493Z,16.57
2016-12-16T05:30:03.307Z,16.68
2016-12-16T05:30:31.157Z,16.58
2016-12-16T05:30:58.984Z,16.68
2016-12-16T05:31:26.809Z,16.68
2016-12-16T05:31:54.667Z,16.69
2016-12-16T05:32:22.468Z,16.6
2016-12-16T05:32:50.295Z,16.65
2016-12-16T05:33:18.374Z,16.66
2016-12-16T05:33:46.251Z,16.58
2016-12-16T05:34:14.102Z,16.65
2016-12-16T05:34:41.907Z,16.61
2016-12-16T05:35:09.853Z,16.64
2016-12-16T05:35:37.720Z,16.65
2016-12-16T05:36:05.554Z,16.61
2016-12-16T05:36:33.407Z,16.58
2016-12-16T05:37:01.237Z,16.56
2016-12-16T05:37:29.042Z,16.42
2016-12-16T05:37:56.865Z,16.5
2016-12-16T05:38:24.919Z,16.49
2016-12-16T05:38:52.736Z,16.51
2016-12-16T05:39:20.542Z,16.47
2016-12-16T05:39:48.393Z,16.43
2016-12-16T05:40:16.255Z,16.54
2016-12-16T05:40:44.140Z,16.5
2016-12-16T05:41:12.059Z,16.5
2016-12-16T05:41:39.824Z,16.38
2016-12-16T05:42:07.679Z,16.46
2016-12-16T05:42:35.480Z,16.38
2016-12-16T05:43:03.306Z,16.36
2016-12-16T05:43:31.314Z,16.33
2016-12-16T05:43:59.152Z,16.39
2016-12-16T05:44:27.006Z,16.38
2016-12-16T05:44:54.842Z,16.32
2016-12-16T05:45:22.639Z,16.35
2016-12-16T05:45:50.530Z,16.28
2016-12-16T05:46:18.377Z,16.32
2016-12-16T05:46:46.180Z,16.28
2016-12-16T05:47:13.991Z,16.29
2016-12-16T05:47:41.811Z,16.24
2016-12-16T05:48:09.611Z,16.32
2016-12-16T05:48:37.645Z,16.33
2016-12-16T05:49:05.459Z,16.17
2016-12-16T05:49:33.319Z,16.28
2016-12-16T05:50:01.149Z,16.32
2016-12-16T05:50:28.985Z,16.33
2016-12-16T05:50:56.830Z,16.33
2016-12-16T05:51:24.690Z,16.43
2016-12-16T05:51:52.574Z,16.33
2016-12-16T05:52:20.423Z,16.35
2016-12-16T05:52:48.331Z,16.31
2016-12-16T05:53:16.198Z,16.33
2016-12-16T05:53:44.352Z,16.32
2016-12-16T05:54:12.182Z,16.38
2016-12-16T05:54:40.052Z,16.35
2016-12-16T05:55:07.873Z,16.28
2016-12-16T05:55:35.714Z,16.32
2016-12-16T05:56:03.557Z,16.26
2016-12-16T05:56:31.382Z,16.26
2016-12-16T05:56:59.225Z,16.39
2016-12-16T05:57:27.187Z,16.39
2016-12-16T05:57:55.011Z,16.36
2016-12-16T05:58:22.839Z,16.32
2016-12-16T05:58:50.929Z,16.35
2016-12-16T05:59:18.682Z,16.33